createdAt,value
2022-09-09T00:01:26.644Z,100473.09
2022-09-09T00:04:31.069Z,100463.00
2022-09-09T00:07:19.256Z,100452.91
2022-09-09T00:09:51.759Z,100461.53
2022-09-09T00:12:43.782Z,100454.16
2022-09-09T00:15:21.691Z,100458.78
2022-09-09T00:18:22.189Z,100455.41
2022-09-09T00:21:07.045Z,100450.56
2022-09-09T00:23:40.179Z,100455.41
2022-09-09T00:26:31.999Z,100457.09
2022-09-09T00:29:32.312Z,100451.63
2022-09-09T00:32:11.200Z,100451.22
2022-09-09T00:34:47.240Z,100448.69
2022-09-09T00:37:16.710Z,100447.44
2022-09-09T00:39:50.564Z,100443.66
2022-09-09T00:42:59.316Z,100444.06
2022-09-09T00:45:48.080Z,100451.84
2022-09-09T00:48:14.974Z,100446.19
2022-09-09T00:50:53.300Z,100447.00
2022-09-09T00:54:00.367Z,100442.34
2022-09-09T00:57:27.972Z,100441.94
2022-09-09T01:00:25.107Z,100439.84
2022-09-09T01:03:26.022Z,100445.31
2022-09-09T01:06:13.421Z,100442.81
2022-09-09T01:08:53.602Z,100434.78
2022-09-09T01:11:36.015Z,100439.41
2022-09-09T01:14:36.265Z,100439.41
2022-09-09T01:17:20.885Z,100441.09
2022-09-09T01:19:59.481Z,100450.78
2022-09-09T01:22:46.214Z,100443.22
2022-09-09T01:26:10.188Z,100441.75
2022-09-09T01:28:38.571Z,100451.22
2022-09-09T01:31:08.044Z,100448.69
2022-09-09T01:33:37.594Z,100435.22
2022-09-09T01:36:14.910Z,100439.84
2022-09-09T01:38:44.580Z,100437.97
2022-09-09T01:41:18.740Z,100434.34
2022-09-09T01:43:45.826Z,100435.22
2022-09-09T01:46:17.054Z,100438.38
2022-09-09T01:48:44.492Z,100434.38
2022-09-09T01:51:11.686Z,100438.56
2022-09-09T01:53:42.875Z,100441.91
2022-09-09T01:56:26.231Z,100438.56
2022-09-09T01:59:17.774Z,100440.66
2022-09-09T02:02:40.593Z,100445.66
2022-09-09T02:05:39.478Z,100438.88
2022-09-09T02:08:10.313Z,100444.38
2022-09-09T02:10:54.947Z,100443.53
2022-09-09T02:13:23.450Z,100441.63
2022-09-09T02:16:09.217Z,100441.66
2022-09-09T02:19:13.755Z,100443.78
2022-09-09T02:21:43.557Z,100437.69
2022-09-09T02:24:15.423Z,100445.47
2022-09-09T02:26:48.726Z,100444.00
2022-09-09T02:29:29.386Z,100432.03
2022-09-09T02:32:07.463Z,100430.13
2022-09-09T02:34:43.344Z,100432.72
2022-09-09T02:37:12.007Z,100439.78
2022-09-09T02:39:38.951Z,100437.00
2022-09-09T02:42:06.650Z,100431.78
2022-09-09T02:44:37.273Z,100437.25
2022-09-09T02:47:29.551Z,100436.38
2022-09-09T02:50:10.489Z,100437.03
2022-09-09T02:53:25.763Z,100440.81
2022-09-09T02:56:17.300Z,100440.19
2022-09-09T02:58:47.307Z,100442.31
2022-09-09T03:01:17.536Z,100437.22
2022-09-09T03:03:45.216Z,100440.19
2022-09-09T03:06:12.877Z,100436.81
2022-09-09T03:08:49.286Z,100439.34
2022-09-09T03:11:17.850Z,100444.16
2022-09-09T03:13:50.282Z,100436.38
2022-09-09T03:16:17.272Z,100445.22
2022-09-09T03:18:46.963Z,100442.28
2022-09-09T03:21:18.697Z,100444.19
2022-09-09T03:23:48.106Z,100446.28
2022-09-09T03:26:16.164Z,100444.22
2022-09-09T03:28:44.250Z,100447.38
2022-09-09T03:31:11.504Z,100452.00
2022-09-09T03:33:42.091Z,100449.44
2022-09-09T03:36:12.079Z,100456.59
2022-09-09T03:38:39.020Z,100455.75
2022-09-09T03:41:10.548Z,100458.06
2022-09-09T03:43:38.676Z,100450.06
2022-09-09T03:46:05.997Z,100455.38
2022-09-09T03:48:32.975Z,100451.38
2022-09-09T03:51:05.522Z,100460.00
2022-09-09T03:53:32.927Z,100464.75
2022-09-09T03:56:00.907Z,100467.88
2022-09-09T03:58:29.222Z,100462.97
2022-09-09T04:01:01.973Z,100461.56
2022-09-09T04:03:32.555Z,100454.84
2022-09-09T04:06:03.033Z,100459.41
2022-09-09T04:08:32.931Z,100454.13
2022-09-09T04:11:06.351Z,100446.28
2022-09-09T04:13:41.302Z,100456.91
2022-09-09T04:16:11.885Z,100458.19
2022-09-09T04:18:38.772Z,100457.84
2022-09-09T04:21:07.656Z,100470.88
2022-09-09T04:23:37.269Z,100463.31
2022-09-09T04:26:05.139Z,100467.94
2022-09-09T04:28:38.231Z,100461.56
2022-09-09T04:31:24.444Z,100470.81
2022-09-09T04:33:52.294Z,100481.78
2022-09-09T04:36:20.381Z,100474.84
2022-09-09T04:38:49.817Z,100467.56
2022-09-09T04:41:19.275Z,100466.72
2022-09-09T04:43:46.342Z,100465.25
2022-09-09T04:46:13.351Z,100463.81
2022-09-09T04:48:41.067Z,100468.03
2022-09-09T04:51:14.244Z,100472.88
2022-09-09T04:53:43.565Z,100471.41
2022-09-09T04:56:16.516Z,100474.13
2022-09-09T04:58:46.721Z,100473.94
2022-09-09T05:01:18.837Z,100478.97
2022-09-09T05:03:47.230Z,100474.78
2022-09-09T05:06:20.707Z,100479.81
2022-09-09T05:08:47.548Z,100469.50
2022-09-09T05:11:28.494Z,100483.56
2022-09-09T05:13:58.429Z,100488.63
2022-09-09T05:16:28.157Z,100481.84
2022-09-09T05:18:55.077Z,100485.13
2022-09-09T05:21:27.314Z,100488.69
2022-09-09T05:23:54.199Z,100496.91
2022-09-09T05:26:23.299Z,100496.28
2022-09-09T05:28:50.596Z,100487.69
2022-09-09T05:31:28.739Z,100489.34
2022-09-09T05:33:58.167Z,100486.47
2022-09-09T05:36:25.073Z,100490.66
2022-09-09T05:38:52.047Z,100497.47
2022-09-09T05:41:19.482Z,100494.97
2022-09-09T05:43:47.946Z,100506.13
2022-09-09T05:46:21.823Z,100509.69
2022-09-09T05:48:53.380Z,100516.00
2022-09-09T05:51:29.129Z,100513.47
2022-09-09T05:54:01.576Z,100513.06
2022-09-09T05:56:33.978Z,100521.69
2022-09-09T05:59:03.267Z,100518.13
2022-09-09T06:01:34.202Z,100513.47
2022-09-09T06:04:01.545Z,100522.94
2022-09-09T06:06:37.862Z,100527.56
2022-09-09T06:09:10.401Z,100523.97
2022-09-09T06:11:43.129Z,100531.34
2022-09-09T06:14:10.486Z,100534.09
2022-09-09T06:16:38.808Z,100533.06
2022-09-09T06:19:06.045Z,100531.78
2022-09-09T06:21:39.765Z,100532.84
2022-09-09T06:24:13.390Z,100539.16
2022-09-09T06:26:42.021Z,100539.16
2022-09-09T06:29:10.143Z,100532.84
2022-09-09T06:31:38.120Z,100532.41
2022-09-09T06:34:09.577Z,100538.31
2022-09-09T06:36:39.489Z,100534.50
2022-09-09T06:39:12.133Z,100539.16
2022-09-09T06:41:43.911Z,100542.31
2022-09-09T06:44:13.343Z,100545.06
2022-09-09T06:46:40.809Z,100553.03
2022-09-09T06:49:10.802Z,100550.94
2022-09-09T06:51:44.646Z,100545.03
2022-09-09T06:54:12.829Z,100553.59
2022-09-09T06:56:44.250Z,100548.09
2022-09-09T06:59:15.864Z,100552.25
2022-09-09T07:01:55.777Z,100539.31
2022-09-09T07:04:23.085Z,100544.84
2022-09-09T07:06:49.977Z,100549.56
2022-09-09T07:09:17.385Z,100554.03
2022-09-09T07:11:51.685Z,100559.41
2022-09-09T07:14:21.740Z,100545.50
2022-09-09T07:16:51.641Z,100556.84
2022-09-09T07:19:18.539Z,100543.81
2022-09-09T07:21:45.710Z,100548.19
2022-09-09T07:24:18.224Z,100551.50
2022-09-09T07:26:47.714Z,100544.59
2022-09-09T07:29:19.863Z,100544.19
2022-09-09T07:31:47.761Z,100555.72
2022-09-09T07:34:14.629Z,100549.22
2022-09-09T07:36:43.118Z,100550.22
2022-09-09T07:39:15.260Z,100550.97
2022-09-09T07:41:50.197Z,100548.25
2022-09-09T07:44:22.403Z,100544.56
2022-09-09T07:46:52.460Z,100549.00
2022-09-09T07:49:24.434Z,100560.56
2022-09-09T07:51:54.533Z,100555.09
2022-09-09T07:54:24.441Z,100571.03
2022-09-09T07:56:52.927Z,100566.84
2022-09-09T07:59:19.816Z,100563.72
2022-09-09T08:01:55.786Z,100559.03
2022-09-09T08:04:26.044Z,100560.59
2022-09-09T08:07:04.376Z,100563.47
2022-09-09T08:09:35.738Z,100568.03
2022-09-09T08:12:09.911Z,100563.72
2022-09-09T08:14:36.799Z,100570.53
2022-09-09T08:17:06.194Z,100572.31
2022-09-09T08:19:38.112Z,100574.44
2022-09-09T08:22:08.651Z,100578.06
2022-09-09T08:24:37.667Z,100577.25
2022-09-09T08:27:07.719Z,100573.78
2022-09-09T08:29:38.808Z,100582.63
2022-09-09T08:32:05.746Z,100575.72
2022-09-09T08:34:33.230Z,100581.69
2022-09-09T08:37:04.765Z,100579.25
2022-09-09T08:39:34.918Z,100584.69
2022-09-09T08:42:26.785Z,100592.88
2022-09-09T08:45:20.914Z,100595.19
2022-09-09T08:48:13.226Z,100598.44
2022-09-09T08:50:41.798Z,100600.69
2022-09-09T08:53:31.216Z,100586.59
2022-09-09T08:56:02.745Z,100605.13
2022-09-09T08:58:37.652Z,100606.63
2022-09-09T09:01:12.715Z,100609.88
2022-09-09T09:03:56.207Z,100605.38
2022-09-09T09:06:31.888Z,100609.75
2022-09-09T09:09:20.214Z,100604.31
2022-09-09T09:12:07.287Z,100605.72
2022-09-09T09:14:38.495Z,100616.31
2022-09-09T09:17:13.846Z,100604.28
2022-09-09T09:19:42.860Z,100613.84
2022-09-09T09:22:46.784Z,100606.03
2022-09-09T09:25:19.748Z,100607.72
2022-09-09T09:28:11.866Z,100598.03
2022-09-09T09:31:13.722Z,100600.34
2022-09-09T09:33:56.179Z,100596.84
2022-09-09T09:36:38.928Z,100597.38
2022-09-09T09:41:58.765Z,100595.91
2022-09-09T09:44:38.186Z,100609.31
2022-09-09T09:47:22.416Z,100605.31
2022-09-09T09:49:59.520Z,100599.47
2022-09-09T09:52:30.289Z,100606.56
2022-09-09T09:55:06.712Z,100604.47
2022-09-09T09:57:37.326Z,100601.78
2022-09-09T10:00:15.901Z,100596.59
2022-09-09T10:02:45.043Z,100602.94
2022-09-09T10:05:27.219Z,100598.06
2022-09-09T10:08:13.690Z,100604.59
2022-09-09T10:10:41.574Z,100610.94
2022-09-09T10:13:24.807Z,100603.72
2022-09-09T10:16:45.274Z,100597.94
2022-09-09T10:19:17.838Z,100604.94
2022-09-09T10:21:47.319Z,100603.78
2022-09-09T10:24:41.139Z,100604.34
2022-09-09T10:27:44.322Z,100601.22
2022-09-09T10:30:31.192Z,100604.94
2022-09-09T10:33:03.782Z,100606.50
2022-09-09T10:35:52.242Z,100607.84
2022-09-09T10:38:33.006Z,100609.91
2022-09-09T10:41:36.332Z,100599.94
2022-09-09T10:44:30.368Z,100596.41
2022-09-09T10:47:12.548Z,100601.19
2022-09-09T10:50:10.153Z,100594.38
2022-09-09T10:52:55.248Z,100599.00
2022-09-09T10:55:36.902Z,100588.84
2022-09-09T10:58:10.416Z,100586.94
2022-09-09T11:00:46.685Z,100584.09
2022-09-09T11:03:23.455Z,100583.94
2022-09-09T11:05:58.106Z,100581.16
2022-09-09T11:08:31.663Z,100583.44
2022-09-09T11:11:28.800Z,100585.59
2022-09-09T11:14:20.137Z,100583.72
2022-09-09T11:16:57.689Z,100578.16
2022-09-09T11:19:44.607Z,100571.00
2022-09-09T11:22:41.770Z,100580.41
2022-09-09T11:25:30.946Z,100571.66
2022-09-09T11:28:53.085Z,100584.31
2022-09-09T11:31:53.622Z,100581.09
2022-09-09T11:34:43.735Z,100577.75
2022-09-09T11:37:51.080Z,100569.09
2022-09-09T11:40:20.584Z,100581.59
2022-09-09T11:42:50.838Z,100570.44
2022-09-09T11:45:25.111Z,100585.97
2022-09-09T11:48:00.244Z,100592.50
2022-09-09T11:50:26.925Z,100613.81
2022-09-09T11:53:21.935Z,100636.53
2022-09-09T11:56:00.519Z,100595.56
2022-09-09T11:58:33.344Z,100605.72
2022-09-09T12:01:00.626Z,100607.78
2022-09-09T12:03:43.679Z,100612.63
2022-09-09T12:06:21.151Z,100609.88
2022-09-09T12:08:58.277Z,100613.97
2022-09-09T12:11:28.024Z,100599.13
2022-09-09T12:14:03.461Z,100604.66
2022-09-09T12:16:42.235Z,100596.50
2022-09-09T12:19:23.368Z,100586.81
2022-09-09T12:22:31.848Z,100593.41
2022-09-09T12:25:23.533Z,100606.47
2022-09-09T12:28:38.316Z,100602.03
2022-09-09T12:31:38.705Z,100604.59
2022-09-09T12:34:22.109Z,100609.34
2022-09-09T12:36:59.047Z,100614.44
2022-09-09T12:39:46.644Z,100599.53
2022-09-09T12:42:22.192Z,100601.50
2022-09-09T12:45:26.164Z,100601.94
2022-09-09T12:48:01.763Z,100589.44
2022-09-09T12:50:40.202Z,100577.56
2022-09-09T12:53:33.079Z,100564.63
2022-09-09T12:56:09.032Z,100567.28
2022-09-09T12:58:40.855Z,100563.72
2022-09-09T13:01:22.164Z,100565.38
2022-09-09T13:03:49.182Z,100568.53
2022-09-09T13:06:35.706Z,100575.97
2022-09-09T13:09:04.064Z,100578.94
2022-09-09T13:11:50.742Z,100587.72
2022-09-09T13:14:26.817Z,100589.13
2022-09-09T13:17:02.616Z,100586.63
2022-09-09T13:19:37.895Z,100599.06
2022-09-09T13:22:38.762Z,100598.06
2022-09-09T13:25:13.653Z,100602.03
2022-09-09T13:27:51.817Z,100601.84
2022-09-09T13:30:23.962Z,100606.03
2022-09-09T13:33:08.125Z,100611.41
2022-09-09T13:35:37.424Z,100604.16
2022-09-09T13:38:10.783Z,100604.38
2022-09-09T13:40:39.255Z,100607.63
2022-09-09T13:43:20.162Z,100608.31
2022-09-09T13:46:02.539Z,100615.56
2022-09-09T13:48:32.818Z,100615.66
2022-09-09T13:51:43.272Z,100614.25
2022-09-09T13:54:12.091Z,100607.81
2022-09-09T13:56:41.503Z,100612.59
2022-09-09T13:59:17.613Z,100617.63
2022-09-09T14:01:45.303Z,100614.13
2022-09-09T14:04:12.852Z,100616.63
2022-09-09T14:06:40.700Z,100612.63
2022-09-09T14:09:11.921Z,100592.75
2022-09-09T14:11:41.769Z,100579.63
2022-09-09T14:14:08.995Z,100578.75
2022-09-09T14:16:36.033Z,100587.50
2022-09-09T14:19:05.428Z,100592.66
2022-09-09T14:21:33.055Z,100593.72
2022-09-09T14:23:59.883Z,100599.81
2022-09-09T14:26:30.898Z,100599.03
2022-09-09T14:28:58.274Z,100598.53
2022-09-09T14:31:28.150Z,100587.69
2022-09-09T14:33:55.014Z,100601.94
2022-09-09T14:36:22.302Z,100598.50
2022-09-09T14:38:49.174Z,100593.56
2022-09-09T14:41:21.078Z,100599.31
2022-09-09T14:43:48.006Z,100597.16
2022-09-09T14:46:20.019Z,100596.31
2022-09-09T14:48:49.447Z,100597.06
2022-09-09T14:51:25.376Z,100602.72
2022-09-09T14:53:54.348Z,100595.41
2022-09-09T14:56:25.453Z,100601.81
2022-09-09T14:58:56.291Z,100600.34
2022-09-09T15:01:24.846Z,100601.28
2022-09-09T15:04:05.112Z,100603.41
2022-09-09T15:06:37.441Z,100599.53
2022-09-09T15:09:06.923Z,100589.66
2022-09-09T15:11:39.166Z,100587.22
2022-09-09T15:14:13.213Z,100584.34
2022-09-09T15:16:41.100Z,100589.75
2022-09-09T15:19:08.251Z,100588.38
2022-09-09T15:21:40.696Z,100589.50
2022-09-09T15:24:13.984Z,100588.66
2022-09-09T15:26:40.798Z,100590.00
2022-09-09T15:29:09.198Z,100586.59
2022-09-09T15:31:37.151Z,100584.69
2022-09-09T15:34:07.043Z,100590.34
2022-09-09T15:36:43.917Z,100584.34
2022-09-09T15:39:14.004Z,100580.50
2022-09-09T15:41:41.394Z,100573.47
2022-09-09T15:44:13.878Z,100575.59
2022-09-09T15:46:44.452Z,100577.66
2022-09-09T15:49:26.890Z,100579.84
2022-09-09T15:51:56.837Z,100568.78
2022-09-09T15:54:27.472Z,100564.94
2022-09-09T15:57:01.691Z,100565.97
2022-09-09T15:59:30.924Z,100570.41
2022-09-09T16:01:58.908Z,100576.72
2022-09-09T16:04:26.026Z,100580.97
2022-09-09T16:07:02.347Z,100590.88
2022-09-09T16:09:29.999Z,100588.06
2022-09-09T16:11:59.964Z,100591.41
2022-09-09T16:14:27.235Z,100589.81
2022-09-09T16:16:54.620Z,100593.91
2022-09-09T16:19:21.694Z,100585.03
2022-09-09T16:21:50.497Z,100581.09
2022-09-09T16:24:21.102Z,100589.03
2022-09-09T16:26:55.192Z,100573.69
2022-09-09T16:29:23.276Z,100573.66
2022-09-09T16:31:51.325Z,100563.06
2022-09-09T16:34:23.925Z,100562.47
2022-09-09T16:36:53.219Z,100562.69
2022-09-09T16:39:21.496Z,100551.38
2022-09-09T16:41:49.784Z,100541.31
2022-09-09T16:44:19.731Z,100539.75
2022-09-09T16:46:49.781Z,100548.03
2022-09-09T16:49:19.275Z,100554.97
2022-09-09T16:51:49.952Z,100555.22
2022-09-09T16:54:18.268Z,100557.84
2022-09-09T16:56:51.093Z,100550.06
2022-09-09T16:59:23.558Z,100561.34
2022-09-09T17:01:56.216Z,100566.72
2022-09-09T17:04:28.745Z,100566.59
2022-09-09T17:06:58.132Z,100561.56
2022-09-09T17:09:30.079Z,100556.03
2022-09-09T17:11:58.316Z,100545.03
2022-09-09T17:14:25.129Z,100545.72
2022-09-09T17:16:54.449Z,100545.25
2022-09-09T17:19:21.245Z,100537.97
2022-09-09T17:22:22.099Z,100536.56
2022-09-09T17:24:41.416Z,100534.84
2022-09-09T17:27:10.609Z,100535.66
2022-09-09T17:29:42.103Z,100539.66
2022-09-09T17:32:08.927Z,100535.97
2022-09-09T17:34:36.739Z,100531.91
2022-09-09T17:37:07.253Z,100535.22
2022-09-09T17:39:34.698Z,100535.59
2022-09-09T17:42:01.583Z,100542.34
2022-09-09T17:44:29.915Z,100534.94
2022-09-09T17:47:00.287Z,100552.50
2022-09-09T17:49:30.160Z,100548.91
2022-09-09T17:51:57.521Z,100553.50
2022-09-09T17:54:27.390Z,100551.63
2022-09-09T17:56:54.234Z,100559.94
2022-09-09T17:59:25.180Z,100561.59
2022-09-09T18:01:52.871Z,100562.69
2022-09-09T18:04:20.386Z,100568.19
2022-09-09T18:06:54.116Z,100564.50
2022-09-09T18:09:28.453Z,100569.25
2022-09-09T18:12:07.654Z,100573.88
2022-09-09T18:14:35.440Z,100573.03
2022-09-09T18:17:11.268Z,100579.53
2022-09-09T18:19:38.176Z,100582.75
2022-09-09T18:22:06.797Z,100590.88
2022-09-09T18:24:34.278Z,100598.28
2022-09-09T18:27:01.232Z,100599.94
2022-09-09T18:29:28.343Z,100608.28
2022-09-09T18:31:56.284Z,100611.50
2022-09-09T18:34:30.214Z,100605.03
2022-09-09T18:36:57.603Z,100623.69
2022-09-09T18:39:28.343Z,100622.91
2022-09-09T18:42:00.366Z,100618.31
2022-09-09T18:44:31.010Z,100614.50
2022-09-09T18:47:00.921Z,100622.19
2022-09-09T18:49:30.439Z,100628.28
2022-09-09T18:51:57.815Z,100622.94
2022-09-09T18:54:33.269Z,100621.63
2022-09-09T18:57:00.932Z,100622.94
2022-09-09T18:59:32.735Z,100621.50
2022-09-09T19:01:59.772Z,100628.28
2022-09-09T19:04:27.344Z,100624.47
2022-09-09T19:06:59.265Z,100627.06
2022-09-09T19:09:31.730Z,100630.19
2022-09-09T19:12:00.459Z,100625.81
2022-09-09T19:14:30.603Z,100633.63
2022-09-09T19:16:58.099Z,100640.31
2022-09-09T19:19:32.034Z,100630.31
2022-09-09T19:22:02.965Z,100626.09
2022-09-09T19:24:33.020Z,100627.50
2022-09-09T19:27:03.033Z,100635.91
2022-09-09T19:29:34.387Z,100619.94
2022-09-09T19:32:42.708Z,100625.00
2022-09-09T19:34:50.721Z,100622.19
2022-09-09T19:37:20.344Z,100630.59
2022-09-09T19:39:52.858Z,100632.72
2022-09-09T19:42:20.033Z,100621.91
2022-09-09T19:44:46.984Z,100621.56
2022-09-09T19:47:17.700Z,100612.63
2022-09-09T19:49:47.523Z,100620.56
2022-09-09T19:52:15.918Z,100615.91
2022-09-09T19:54:45.067Z,100623.97
2022-09-09T19:57:12.158Z,100630.38
2022-09-09T19:59:39.084Z,100621.44
2022-09-09T20:02:06.012Z,100623.75
2022-09-09T20:04:34.059Z,100629.09
2022-09-09T20:07:00.877Z,100641.56
2022-09-09T20:09:28.998Z,100640.91
2022-09-09T20:11:55.816Z,100643.59
2022-09-09T20:14:22.681Z,100649.44
2022-09-09T20:16:49.546Z,100643.63
2022-09-09T20:19:16.629Z,100657.66
2022-09-09T20:21:49.461Z,100650.41
2022-09-09T20:24:20.616Z,100657.78
2022-09-09T20:26:48.792Z,100655.28
2022-09-09T20:29:19.171Z,100656.09
2022-09-09T20:31:49.105Z,100667.97
2022-09-09T20:34:22.244Z,100666.22
2022-09-09T20:36:50.861Z,100678.13
2022-09-09T20:39:23.470Z,100677.69
2022-09-09T20:41:52.641Z,100678.47
2022-09-09T20:44:25.225Z,100680.09
2022-09-09T20:47:00.367Z,100673.69
2022-09-09T20:49:28.057Z,100684.66
2022-09-09T20:51:57.136Z,100676.44
2022-09-09T20:54:28.070Z,100684.25
2022-09-09T20:56:57.499Z,100683.09
2022-09-09T20:59:27.827Z,100687.06
2022-09-09T21:01:56.809Z,100696.19
2022-09-09T21:04:29.197Z,100698.31
2022-09-09T21:06:58.215Z,100701.22
2022-09-09T21:09:25.018Z,100717.88
2022-09-09T21:11:54.578Z,100721.50
2022-09-09T21:14:22.111Z,100718.94
2022-09-09T21:16:54.391Z,100713.25
2022-09-09T21:19:21.213Z,100716.19
2022-09-09T21:21:55.472Z,100707.91
2022-09-09T21:24:22.734Z,100711.91
2022-09-09T21:26:49.610Z,100709.56
2022-09-09T21:29:19.459Z,100714.31
2022-09-09T21:31:46.405Z,100713.03
2022-09-09T21:34:15.395Z,100702.88
2022-09-09T21:36:42.313Z,100696.50
2022-09-09T21:39:09.284Z,100689.28
2022-09-09T21:41:36.929Z,100683.75
2022-09-09T21:44:04.202Z,100677.34
2022-09-09T21:46:33.509Z,100677.34
2022-09-09T21:49:04.118Z,100670.19
2022-09-09T21:51:30.985Z,100675.75
2022-09-09T21:53:57.988Z,100665.78
2022-09-09T21:56:26.642Z,100668.91
2022-09-09T21:58:58.876Z,100667.06
2022-09-09T22:01:26.438Z,100656.09
2022-09-09T22:03:53.692Z,100661.97
2022-09-09T22:06:22.803Z,100657.53
2022-09-09T22:08:49.993Z,100659.38
2022-09-09T22:11:22.201Z,100665.56
2022-09-09T22:13:49.547Z,100654.56
2022-09-09T22:16:19.957Z,100665.63
2022-09-09T22:18:57.152Z,100668.13
2022-09-09T22:21:26.235Z,100680.50
2022-09-09T22:23:56.698Z,100679.66
2022-09-09T22:26:28.035Z,100675.34
2022-09-09T22:28:57.167Z,100667.75
2022-09-09T22:31:26.182Z,100666.06
2022-09-09T22:33:53.751Z,100654.22
2022-09-09T22:36:21.256Z,100660.72
2022-09-09T22:38:50.763Z,100663.44
2022-09-09T22:41:21.199Z,100661.75
2022-09-09T22:43:50.898Z,100658.38
2022-09-09T22:46:18.843Z,100665.25
2022-09-09T22:48:51.353Z,100660.53
2022-09-09T22:51:18.400Z,100666.44
2022-09-09T22:53:46.108Z,100658.75
2022-09-09T22:56:17.370Z,100665.16
2022-09-09T22:58:46.176Z,100656.41
2022-09-09T23:01:17.228Z,100660.31
2022-09-09T23:03:48.108Z,100662.38
2022-09-09T23:06:22.903Z,100658.38
2022-09-09T23:08:56.236Z,100643.63
2022-09-09T23:11:28.005Z,100653.78
2022-09-09T23:13:59.707Z,100655.53
2022-09-09T23:16:43.516Z,100656.66
2022-09-09T23:19:15.929Z,100659.41
2022-09-09T23:21:46.057Z,100658.47
2022-09-09T23:24:17.895Z,100655.09
2022-09-09T23:26:47.522Z,100661.69
2022-09-09T23:29:14.993Z,100660.00
2022-09-09T23:31:44.921Z,100660.84
2022-09-09T23:34:14.691Z,100664.13
2022-09-09T23:36:44.498Z,100661.19
2022-09-09T23:39:13.241Z,100661.81
2022-09-09T23:41:40.332Z,100658.59
2022-09-09T23:44:13.555Z,100645.59
2022-09-09T23:46:40.470Z,100664.00
2022-09-09T23:49:10.296Z,100651.72
2022-09-09T23:51:41.067Z,100647.69
2022-09-09T23:54:12.977Z,100652.75
2022-09-09T23:56:42.365Z,100654.22
2022-09-09T23:59:12.153Z,100657.84
